Flight Track Log - Related Links

Times and Time Zones

All times are in EDT time to prevent confusion due to time zone crossing. See the SWA3143 flight status page for this flight to view local times or setup timezone preferences in your user account.

Time Position Orientation Groundspeed Altitude Reporting Facility
EDT Latitude Longitude Course Direction KTS MPH feet Rate Location/Type
Sat 20:46:14 30.1903 -97.8292 305° West 269 310 7,700  Level Houston Center
Sat 20:47:15 30.2328 -97.9197 299° West 283 326 11,700 3,197 Climbing Houston Center
Sat 20:48:16 30.2508 -98.0139 283° West 303 349 14,200 2,557 Climbing Houston Center
Sat 20:49:00 30.3410 -98.3375 284° West  Level Estimated
Sat 20:49:17 30.2961 -98.1072 299° West 331 381 16,900  Level Houston Center
Sat 20:50:00 30.3652 -98.4499 284° West  Level Estimated
Sat 20:50:18 30.3414 -98.1956 301° West 352 405 18,300  Level Houston Center
Sat 20:51:19 30.3933 -98.3100 298° West 391 450 21,000 2,705 Climbing Houston Center
Sat 20:52:20 30.4506 -98.4308 299° West 369 425 23,800 2,410 Climbing Houston Center
Sat 20:53:21 30.5014 -98.5417 298° West 384 442 25,900 2,607 Climbing Houston Center
Sat 20:54:22 30.5539 -98.6467 300° West 376 433 29,100 2,557 Climbing Houston Center
Sat 20:55:23 30.5972 -98.7456 297° West 350 403 31,100 1,672 Climbing Houston Center
Sat 20:56:24 30.6136 -98.8525 280° West 333 383 32,500 934 Climbing Houston Center
Sat 20:57:25 30.6339 -98.9675 282° West 358 412 33,000 984 Climbing Houston Center
Sat 20:58:26 30.6550 -99.0881 282° West 374 430 34,500 1,426 Climbing Houston Center
Sat 20:59:27 30.6744 -99.1975 282° West 365 420 35,900 738 Climbing Houston Center
Sat 21:00:28 30.6944 -99.3131 281° West 367 422 36,000 49 Climbing Houston Center
Sat 21:01:29 30.7144 -99.4308 281° West 373 429 36,000  Level Houston Center
Sat 21:02:30 30.7331 -99.5478 281° West 371 427 36,000  Level Houston Center
Sat 21:03:31 30.7522 -99.6650 281° West 371 427 36,000  Level Houston Center
Sat 21:04:32 30.7708 -99.7814 281° West 369 425 36,000  Level Houston Center
Sat 21:05:33 30.7942 -99.9208 281° West 371 427 36,000  Level Houston Center
Sat 21:06:34 30.8125 -100.0372 280° West 370 426 36,000  Level Houston Center
Sat 21:07:35 30.8319 -100.1528 281° West 368 423 36,000  Level Houston Center
Sat 21:08:36 30.8508 -100.2692 281° West 369 425 36,000  Level Houston Center
Sat 21:09:37 30.8694 -100.3861 281° West 370 426 36,000  Level Houston Center
Sat 21:10:38 30.8892 -100.5028 281° West 369 425 36,000  Level Houston Center
Sat 21:11:39 30.9069 -100.6197 280° West 369 425 36,000  Level Houston Center
Sat 21:12:40 30.9250 -100.7367 280° West 370 426 36,000  Level Houston Center
Sat 21:13:41 30.9436 -100.8536 281° West 367 422 36,000  Level Houston Center
Sat 21:14:42 30.9625 -100.9711 281° West 365 420 36,000  Level Houston Center
Sat 21:15:43 30.9803 -101.0914 280° West 374 430 36,000  Level Houston Center
Sat 21:16:43 31.0044 -101.2300 282° West 366 421 36,000  Level Houston Center
Sat 21:17:44 31.0200 -101.3389 279° West 370 426 36,000  Level Houston Center
Sat 21:18:02 31.0261 -101.3872 278° West 375 432 36,000  Level Albuquerque Center
Sat 21:19:03 31.0444 -101.5069 280° West 376 433 36,000  Level Albuquerque Center
Sat 21:20:04 31.0622 -101.6258 280° West 374 430 36,000  Level Albuquerque Center
Sat 21:21:05 31.0811 -101.7444 281° West 373 429 36,000  Level Albuquerque Center
Sat 21:22:06 31.1025 -101.8631 282° West 373 429 36,000  Level Albuquerque Center
Sat 21:23:07 31.1192 -101.9731 280° West 388 447 36,000  Level Albuquerque Center
Sat 21:24:08 31.1444 -102.1158 282° West 378 435 36,000  Level Albuquerque Center
Sat 21:25:09 31.1656 -102.2333 282° West 372 428 36,000  Level Albuquerque Center
Sat 21:26:10 31.1856 -102.3519 281° West 373 429 36,000  Level Albuquerque Center
Sat 21:27:11 31.2056 -102.4697 281° West 371 427 36,000  Level Albuquerque Center
Sat 21:28:12 31.2242 -102.5842 281° West 370 426 36,000  Level Albuquerque Center
Sat 21:29:13 31.2447 -102.7033 281° West 369 425 36,000  Level Albuquerque Center
Sat 21:30:14 31.2644 -102.8239 281° West 376 433 36,000  Level Albuquerque Center
Sat 21:31:15 31.2839 -102.9444 281° West 377 434 36,000  Level Albuquerque Center
Sat 21:32:16 31.3039 -103.0644 281° West 377 434 36,000  Level Albuquerque Center
Sat 21:33:17 31.3236 -103.1836 281° West 375 432 36,000  Level Albuquerque Center
Sat 21:34:18 31.3431 -103.3056 281° West 379 436 36,000  Level Albuquerque Center
Sat 21:35:19 31.3647 -103.4478 280° West 373 429 36,000  Level Albuquerque Center
Sat 21:36:19 31.3842 -103.5694 281° West 378 435 36,000  Level Albuquerque Center
Sat 21:37:20 31.4031 -103.6900 280° West 378 435 36,000  Level Albuquerque Center
Sat 21:38:21 31.4206 -103.7958 281° West 379 436 36,000  Level Albuquerque Center
Sat 21:39:22 31.4417 -103.9172 282° West 381 438 36,000  Level Albuquerque Center
Sat 21:40:23 31.4589 -104.0356 280° West 373 429 36,000  Level Albuquerque Center
Sat 21:41:24 31.4817 -104.1789 281° West 374 430 36,000  Level Albuquerque Center
Sat 21:42:25 31.5008 -104.2986 281° West 376 433 36,000  Level Albuquerque Center
Sat 21:43:26 31.5192 -104.4183 280° West 376 433 36,000  Level Albuquerque Center
Sat 21:44:27 31.5378 -104.5383 280° West 376 433 36,000 -98 Level Albuquerque Center
Sat 21:45:28 31.5558 -104.6592 280° West 378 435 35,800 -1,686 Descending Albuquerque Center
Sat 21:46:28 31.5744 -104.7822 280° West 383 441 32,600 -3,124 Descending Albuquerque Center
Sat 21:47:29 31.5931 -104.9061 280° West 388 447 29,500 -2,754 Descending Albuquerque Center
Sat 21:48:30 31.6114 -105.0258 280° West 376 433 27,000 -2,311 Descending Albuquerque Center
Sat 21:49:31 31.6286 -105.1386 280° West 358 412 24,800 -2,262 Descending Albuquerque Center
Sat 21:50:32 31.6450 -105.2531 280° West 357 411 22,400 -2,625 Descending Albuquerque Center
Sat 21:51:07 31.6572 -105.3447 279° West 357 411 20,600 -2,262 Descending Albuquerque Center
Sat 21:51:33 31.6614 -105.3675 282° West 358 412 20,100 -2,182 Descending Albuquerque Center
Sat 21:52:13 31.6747 -105.4603 280° West 337 388 18,200 -2,600 Descending Albuquerque Center
Sat 21:52:33 31.6794 -105.4964 279° West 337 388 17,500 -2,066 Descending Albuquerque Center
Sat 21:53:14 31.6883 -105.5667 278° West 328 377 16,100 -2,164 Descending Albuquerque Center
Sat 21:53:34 31.6947 -105.6017 282° West 329 379 15,300 -1,800 Descending Albuquerque Center
Sat 21:54:14 31.7042 -105.6728 279° West 328 377 14,300 -1,574 Descending Albuquerque Center
Sat 21:54:35 31.7100 -105.7081 281° West 332 382 13,700 -1,967 Descending Albuquerque Center
Sat 21:55:15 31.7200 -105.7811 279° West 341 392 12,300 -2,164 Descending Albuquerque Center
Sat 21:55:36 31.7256 -105.8189 280° West 344 396 11,500 -1,967 Descending Albuquerque Center
Sat 21:56:16 31.7356 -105.8997 278° West 343 395 10,300 -1,377 Descending Albuquerque Center
Sat 21:56:37 31.7403 -105.9253 282° West 328 377 10,100 -900 Descending Albuquerque Center
Sat 21:57:16 31.7492 -105.9961 278° West 291 335 9,400 -900 Descending Albuquerque Center
Sat 21:57:37 31.7542 -106.0186 285° West 293 337 9,200 -806 Descending Albuquerque Center
Sat 21:58:23 31.7653 -106.0947 280° West 280 322 8,500 -1,082 Descending Albuquerque Center
Sat 21:58:38 31.7667 -106.1092 276° West 284 327 8,100 -1,279 Descending Albuquerque Center
Sat 21:59:24 31.7772 -106.1842 279° West 283 326 7,200 -1,082 Descending Albuquerque Center
Sat 21:59:39 31.7794 -106.1989 280° West 279 321 7,000 -1,400 Descending Albuquerque Center
Sat 22:00:24 31.7908 -106.2581 283° West 217 250 5,800 -1,377 Descending Albuquerque Center
Sat 22:00:40 31.7947 -106.2683 294° West 221 254 5,600 -984 Descending Albuquerque Center
Sat 22:01:25 31.7978 -106.3189 274° West 151 174 4,800 -1,000 Descending Albuquerque Center
Sat 22:01:40 31.7983 -106.3217 283° West 163 188 4,600 -632 Descending Albuquerque Center
Sat 22:02:41 31.8022 -106.3711 275° West 143 165 4,000 -590 Descending Albuquerque Center
Sat 22:04:00 31.8000 -106.3667 270° West  Level FlightAware Approximate
Sat 22:11:00 31.8072 -106.3764 270° West  Level Estimated
Sat 22:12:00 31.8072 -106.3764 270° West  Level Estimated
Sat 22:13:00 31.8072 -106.3764 270° West  Level Estimated
Sat 22:14:00 31.8072 -106.3764 270° West  Level Estimated

Login

Don't have an account? Register now (free) for customized features, flight alerts, and more!